Terminal Aerodrome Forecast
Issued by NWS Jackson, KY

Current Version | Previous Version | Text Only | Print | Product List | Glossary On
Versions: 1 2 3 4 5 6 7 8 9 10 11 12 13 14 15 16 17 18 19 20 21 22 23 24 25 26
000
FTUS43 KJKL 300556 CCB
TAFJKL
TAF COR
KJKL 300556Z 3006/3106 VRB03KT 2SM BR BKN003 BKN015
     FM300645 00000KT 3SM BR SCT003 BKN020
     FM301300 00000KT P6SM VCSH SCT003 BKN015
     FM301600 VRB03KT P6SM VCTS SCT025CB BKN045
     FM310000 VRB03KT P6SM BKN040 BKN045=

USA.gov is the U.S. government's official web portal to all federal, state and local government web resources and services.